Time;durP1;ratioP1;P1;durP2;ratioP2;P2;SDS_P1;SDS_P2;PMS_P1;PMS_P2;Temp;Humidity;BMP_temperature;BMP_pressure;BME280_temperature;BME280_humidity;BME280_pressure;Samples;Min_cycle;Max_cycle;Signal;HPM_P1;HPM_P2
2022/08/27 00:01:15;;;;;;;8.25;2.17;;;17.30;99.90;;;;;;5006683;28;20648;-67
2022/08/27 00:03:44;;;;;;;6.70;2.05;;;17.20;99.90;;;;;;5019174;28;20486;-67
2022/08/27 00:06:18;;;;;;;5.35;1.90;;;17.20;99.90;;;;;;5006094;28;20054;-67
2022/08/27 00:08:45;;;;;;;5.05;2.03;;;17.20;99.90;;;;;;5003848;28;20507;-67
2022/08/27 00:11:11;;;;;;;6.68;1.92;;;17.10;99.90;;;;;;5006558;28;20665;-67
2022/08/27 00:13:37;;;;;;;6.10;1.92;;;17.10;99.90;;;;;;4974296;28;20106;-67
2022/08/27 00:16:08;;;;;;;7.65;2.17;;;17.00;99.90;;;;;;5002949;28;20066;-67
2022/08/27 00:18:35;;;;;;;5.82;2.10;;;16.90;99.90;;;;;;5004264;28;20046;-67
2022/08/27 00:21:01;;;;;;;7.32;2.10;;;16.90;99.90;;;;;;5007063;28;20058;-67
2022/08/27 00:23:28;;;;;;;8.00;2.20;;;16.90;99.90;;;;;;5002294;28;20054;-67
2022/08/27 00:25:53;;;;;;;6.13;2.40;;;16.90;99.90;;;;;;5002747;28;20529;-67
2022/08/27 00:28:19;;;;;;;6.10;1.77;;;16.90;99.90;;;;;;5049294;28;20049;-67
2022/08/27 00:30:45;;;;;;;11.63;2.42;;;16.80;99.90;;;;;;5045509;28;20042;-67
2022/08/27 00:33:11;;;;;;;6.93;1.90;;;16.90;99.90;;;;;;5053604;28;20056;-67
2022/08/27 00:35:37;;;;;;;6.20;2.53;;;16.90;99.90;;;;;;5059636;28;20041;-66
2022/08/27 00:38:04;;;;;;;4.90;2.08;;;16.90;99.90;;;;;;5044111;28;20048;-67
2022/08/27 00:40:32;;;;;;;8.30;2.90;;;16.90;99.90;;;;;;5040873;28;20041;-67
2022/08/27 00:43:01;;;;;;;6.95;1.88;;;16.90;99.90;;;;;;5043185;28;20076;-67
2022/08/27 00:45:31;;;;;;;8.23;2.10;;;17.00;99.90;;;;;;5057831;28;20045;-67
2022/08/27 00:47:59;;;;;;;4.40;1.90;;;16.90;99.90;;;;;;5055767;28;20042;-67
2022/08/27 00:50:34;;;;;;;6.38;2.03;;;17.10;99.90;;;;;;5054319;28;20045;-67
2022/08/27 00:53:09;;;;;;;6.15;1.75;;;17.20;99.90;;;;;;5039076;28;20047;-67
2022/08/27 00:55:41;;;;;;;8.38;2.45;;;17.10;99.90;;;;;;5037665;28;20061;-67
2022/08/27 00:58:15;;;;;;;7.32;2.55;;;17.10;99.90;;;;;;5041985;28;20056;-67
2022/08/27 01:00:42;;;;;;;5.30;2.40;;;17.10;99.90;;;;;;5060713;28;20041;-67
2022/08/27 01:03:08;;;;;;;5.47;2.25;;;17.20;99.90;;;;;;5060434;28;20060;-66
2022/08/27 01:05:35;;;;;;;9.15;2.10;;;17.10;99.90;;;;;;5056681;28;20045;-67
2022/08/27 01:08:12;;;;;;;5.10;2.05;;;17.10;99.90;;;;;;5039656;28;20382;-67
2022/08/27 01:10:39;;;;;;;9.00;2.00;;;17.20;99.90;;;;;;5049054;28;20059;-67
2022/08/27 01:13:10;;;;;;;9.60;2.33;;;17.00;99.90;;;;;;5039206;28;20076;-67
2022/08/27 01:15:38;;;;;;;6.93;2.35;;;17.00;99.90;;;;;;5040761;28;20049;-67
2022/08/27 01:18:05;;;;;;;4.53;2.05;;;17.00;99.90;;;;;;5037948;28;20038;-67
2022/08/27 01:20:47;;;;;;;7.03;2.05;;;17.00;99.90;;;;;;5055423;28;20072;-67
2022/08/27 01:23:17;;;;;;;9.82;2.30;;;17.00;99.90;;;;;;5054916;28;20046;-67
2022/08/27 01:25:44;;;;;;;7.43;2.05;;;16.90;99.90;;;;;;5058065;28;20128;-67
2022/08/27 01:28:11;;;;;;;5.35;1.88;;;16.90;99.90;;;;;;5056005;28;20089;-67
2022/08/27 01:30:37;;;;;;;12.32;2.25;;;16.90;99.90;;;;;;5063267;28;20050;-67
2022/08/27 01:33:17;;;;;;;5.68;1.90;;;16.90;99.90;;;;;;5052881;28;20033;-67
2022/08/27 01:35:43;;;;;;;;;;;16.80;99.90;;;;;;5037560;28;20055;-67
2022/08/27 01:38:09;;;;;;;5.68;1.88;;;16.90;99.90;;;;;;5056233;28;20004;-67
2022/08/27 01:40:36;;;;;;;7.03;1.95;;;16.90;99.90;;;;;;5023009;28;20041;-67
2022/08/27 01:43:01;;;;;;;10.55;2.80;;;16.90;99.90;;;;;;5041416;28;20044;-67
2022/08/27 01:45:31;;;;;;;7.53;2.38;;;16.90;99.90;;;;;;5054763;28;20038;-67
2022/08/27 01:47:57;;;;;;;5.03;2.33;;;16.80;99.90;;;;;;5060140;28;20053;-67
2022/08/27 01:50:27;;;;;;;6.03;2.35;;;16.80;99.90;;;;;;5042398;28;20041;-66
2022/08/27 01:52:53;;;;;;;;;;;16.70;99.90;;;;;;5022089;28;20057;-67
2022/08/27 01:55:23;;;;;;;7.82;2.47;;;16.70;99.90;;;;;;5043120;28;19925;-67
2022/08/27 01:57:51;;;;;;;5.25;1.75;;;16.60;99.90;;;;;;5044736;28;20049;-67
2022/08/27 02:00:29;;;;;;;6.68;2.08;;;16.70;99.90;;;;;;5050941;28;20046;-67
2022/08/27 02:02:56;;;;;;;6.50;1.80;;;16.70;99.90;;;;;;5046258;28;20041;-67
2022/08/27 02:05:22;;;;;;;6.97;2.42;;;16.60;99.90;;;;;;5039256;28;20077;-67
2022/08/27 02:07:48;;;;;;;6.30;1.70;;;16.60;99.90;;;;;;5041478;28;20041;-67
2022/08/27 02:10:18;;;;;;;5.20;2.00;;;16.50;99.90;;;;;;5034377;28;20049;-67
2022/08/27 02:12:44;;;;;;;6.35;1.70;;;16.60;99.90;;;;;;5042764;28;20044;-67
2022/08/27 02:15:11;;;;;;;3.50;1.75;;;16.50;99.90;;;;;;5036724;28;20096;-67
2022/08/27 02:17:37;;;;;;;7.15;1.75;;;16.50;99.90;;;;;;5045004;28;20049;-67
2022/08/27 02:20:07;;;;;;;4.85;2.35;;;16.40;99.90;;;;;;5037133;28;20046;-67
2022/08/27 02:22:33;;;;;;;6.25;1.70;;;16.30;99.90;;;;;;5045757;28;20052;-67
2022/08/27 02:24:58;;;;;;;9.52;2.00;;;16.20;99.90;;;;;;5037379;28;20041;-67
2022/08/27 02:27:24;;;;;;;6.95;1.80;;;16.20;99.90;;;;;;5046529;28;20100;-67
2022/08/27 02:29:51;;;;;;;4.65;1.67;;;16.10;99.90;;;;;;5056799;28;20082;-67
2022/08/27 02:32:17;;;;;;;5.43;2.38;;;16.10;99.90;;;;;;5039867;28;20094;-67
2022/08/27 02:34:43;;;;;;;4.70;1.70;;;16.00;99.90;;;;;;5041121;28;20079;-67
2022/08/27 02:37:08;;;;;;;8.75;2.10;;;15.90;99.90;;;;;;5037543;28;20037;-67
2022/08/27 02:39:34;;;;;;;7.88;2.45;;;15.80;99.90;;;;;;5036024;28;20479;-67
2022/08/27 02:42:00;;;;;;;9.82;2.42;;;15.80;99.90;;;;;;5054266;28;20065;-67
2022/08/27 02:44:26;;;;;;;6.85;2.00;;;15.70;99.90;;;;;;5036987;28;20048;-67
2022/08/27 02:46:51;;;;;;;10.35;2.72;;;15.60;99.90;;;;;;5037102;28;20049;-67
2022/08/27 02:49:17;;;;;;;7.00;2.17;;;15.60;99.90;;;;;;5040873;28;20042;-67
2022/08/27 02:51:43;;;;;;;4.03;1.85;;;15.60;99.90;;;;;;5056490;28;20045;-67
2022/08/27 02:54:09;;;;;;;4.85;2.00;;;15.60;99.90;;;;;;5057422;28;20041;-67
2022/08/27 02:56:38;;;;;;;6.20;2.40;;;15.60;99.90;;;;;;5067703;28;20052;-67
2022/08/27 02:59:03;;;;;;;4.93;1.92;;;15.60;99.90;;;;;;5058047;28;20045;-67
2022/08/27 03:01:29;;;;;;;6.95;2.25;;;15.60;99.90;;;;;;5056074;28;20054;-67
2022/08/27 03:03:56;;;;;;;4.93;2.55;;;15.60;99.90;;;;;;5074070;28;20033;-67
2022/08/27 03:06:22;;;;;;;4.38;1.90;;;15.70;99.90;;;;;;5061729;28;20032;-67
2022/08/27 03:08:47;;;;;;;6.97;2.42;;;15.70;99.90;;;;;;5055830;28;20072;-67
2022/08/27 03:11:13;;;;;;;7.03;2.00;;;15.80;99.90;;;;;;5078769;28;20052;-67
2022/08/27 03:13:39;;;;;;;12.05;2.95;;;15.70;99.90;;;;;;5054789;28;20074;-67
2022/08/27 03:16:06;;;;;;;6.57;2.05;;;15.80;99.90;;;;;;5055236;28;20082;-67
2022/08/27 03:18:33;;;;;;;5.97;1.90;;;15.80;99.90;;;;;;5080116;28;20050;-67
2022/08/27 03:21:00;;;;;;;6.07;2.05;;;15.70;99.90;;;;;;5078040;28;20071;-67
2022/08/27 03:23:31;;;;;;;10.48;2.05;;;15.80;99.90;;;;;;5053751;28;20049;-67
2022/08/27 03:25:59;;;;;;;6.10;2.17;;;15.80;99.90;;;;;;5061616;28;20063;-67
2022/08/27 03:28:32;;;;;;;7.93;2.55;;;15.90;99.90;;;;;;5069886;28;20043;-67
2022/08/27 03:31:01;;;;;;;7.38;2.05;;;15.90;99.90;;;;;;5074690;28;20073;-67
2022/08/27 03:33:29;;;;;;;5.22;1.92;;;15.90;99.90;;;;;;5059379;28;20502;-67
2022/08/27 03:35:55;;;;;;;8.60;2.53;;;16.00;99.90;;;;;;5061141;28;20079;-67
2022/08/27 03:38:21;;;;;;;5.90;2.15;;;16.00;99.90;;;;;;5069092;28;20042;-67
2022/08/27 03:40:47;;;;;;;7.38;1.98;;;15.90;99.90;;;;;;5063402;28;20127;-67
2022/08/27 03:43:15;;;;;;;6.85;1.98;;;16.00;99.90;;;;;;5045960;28;20453;-67
2022/08/27 03:45:42;;;;;;;4.68;1.70;;;16.00;99.90;;;;;;5055750;28;20171;-67
2022/08/27 03:48:08;;;;;;;9.98;1.88;;;15.90;99.90;;;;;;5047784;28;20044;-67
2022/08/27 03:50:38;;;;;;;7.15;2.13;;;16.00;99.90;;;;;;5064129;28;20109;-67
2022/08/27 03:53:04;;;;;;;7.50;2.10;;;16.00;99.90;;;;;;5071727;28;20043;-67
2022/08/27 03:55:29;;;;;;;5.38;1.90;;;15.90;99.90;;;;;;5052907;28;20049;-67
2022/08/27 03:57:55;;;;;;;6.75;2.10;;;16.00;99.90;;;;;;5053119;28;20052;-67
2022/08/27 04:00:23;;;;;;;5.80;2.38;;;15.90;99.90;;;;;;5063556;28;20094;-67
2022/08/27 04:02:49;;;;;;;5.05;2.10;;;16.00;99.90;;;;;;5057055;28;20067;-67
2022/08/27 04:05:15;;;;;;;5.75;2.20;;;16.00;99.90;;;;;;5059323;28;20074;-67
2022/08/27 04:07:43;;;;;;;6.22;2.10;;;15.90;99.90;;;;;;5077200;28;20036;-67
2022/08/27 04:10:10;;;;;;;5.05;2.17;;;15.90;99.90;;;;;;5040073;28;20078;-67
2022/08/27 04:12:37;;;;;;;9.55;2.60;;;15.80;99.90;;;;;;5060318;28;20040;-67
2022/08/27 04:15:04;;;;;;;5.03;2.50;;;15.80;99.90;;;;;;5061719;28;20048;-67
2022/08/27 04:17:30;;;;;;;4.95;1.83;;;15.80;99.90;;;;;;5049342;28;20053;-67
2022/08/27 04:19:58;;;;;;;6.57;2.55;;;15.70;99.90;;;;;;5063500;28;20040;-67
2022/08/27 04:22:24;;;;;;;7.80;2.33;;;15.70;99.90;;;;;;5078522;28;20048;-67
2022/08/27 04:24:50;;;;;;;9.73;2.72;;;15.70;99.90;;;;;;5053834;28;20044;-67
2022/08/27 04:27:17;;;;;;;5.65;2.30;;;15.70;99.90;;;;;;5057902;28;20055;-66
2022/08/27 04:29:43;;;;;;;7.60;3.00;;;15.60;99.90;;;;;;5053849;28;20049;-67
2022/08/27 04:32:09;;;;;;;5.60;2.65;;;15.60;99.90;;;;;;5059036;28;20052;-67
2022/08/27 04:34:35;;;;;;;5.43;2.50;;;15.50;99.90;;;;;;5061236;28;20048;-67
2022/08/27 04:37:02;;;;;;;4.45;2.10;;;15.50;99.90;;;;;;5057313;28;20132;-67
2022/08/27 04:39:29;;;;;;;8.52;2.55;;;15.50;99.90;;;;;;5063105;28;20049;-67
2022/08/27 04:41:58;;;;;;;6.68;2.83;;;15.40;99.90;;;;;;5079825;28;20563;-67
2022/08/27 04:44:26;;;;;;;6.43;2.58;;;15.40;99.90;;;;;;5054971;28;20040;-67
2022/08/27 04:46:58;;;;;;;7.93;2.63;;;15.40;99.90;;;;;;5077789;28;20045;-67
2022/08/27 04:49:26;;;;;;;4.40;2.10;;;15.30;99.90;;;;;;5053526;28;20136;-67
2022/08/27 04:51:52;;;;;;;5.35;2.05;;;15.40;99.90;;;;;;5077496;28;20045;-66
2022/08/27 04:54:18;;;;;;;5.30;2.50;;;15.30;99.90;;;;;;5077140;28;20072;-66
2022/08/27 04:56:44;;;;;;;4.55;2.25;;;15.30;99.90;;;;;;5060195;28;20069;-67
2022/08/27 04:59:11;;;;;;;9.35;2.53;;;15.30;99.90;;;;;;5073287;28;20048;-67
2022/08/27 05:01:39;;;;;;;13.15;2.60;;;15.30;99.90;;;;;;5064424;28;20052;-67
2022/08/27 05:04:05;;;;;;;4.53;2.20;;;15.30;99.90;;;;;;5057345;28;20065;-67
2022/08/27 05:06:32;;;;;;;6.35;2.38;;;15.20;99.90;;;;;;5079779;28;20128;-67
2022/08/27 05:08:58;;;;;;;9.63;2.20;;;15.20;99.90;;;;;;5072839;28;20068;-67
2022/08/27 05:11:28;;;;;;;3.92;2.20;;;15.10;99.90;;;;;;5058910;28;20374;-67
2022/08/27 05:13:54;;;;;;;6.68;2.17;;;15.20;99.90;;;;;;5044352;28;20043;-67
2022/08/27 05:16:21;;;;;;;5.78;2.20;;;15.10;99.90;;;;;;5062882;28;20107;-67
2022/08/27 05:18:49;;;;;;;6.20;2.20;;;15.10;99.90;;;;;;5076291;28;20040;-67
2022/08/27 05:21:24;;;;;;;6.75;2.47;;;15.00;99.90;;;;;;5074517;28;20040;-67
2022/08/27 05:23:51;;;;;;;7.07;2.35;;;15.00;99.90;;;;;;5051380;28;20055;-67
2022/08/27 05:26:17;;;;;;;5.32;2.40;;;15.00;99.90;;;;;;5063069;28;20443;-67
2022/08/27 05:28:43;;;;;;;6.57;2.33;;;15.00;99.90;;;;;;5061344;28;20090;-67
2022/08/27 05:31:11;;;;;;;7.65;2.10;;;15.00;99.90;;;;;;5074169;28;20091;-67
2022/08/27 05:33:38;;;;;;;7.93;2.20;;;15.00;99.90;;;;;;5082263;28;20057;-67
2022/08/27 05:36:05;;;;;;;4.90;1.92;;;15.00;99.90;;;;;;5068442;28;20057;-67
2022/08/27 05:38:31;;;;;;;8.10;2.80;;;15.10;99.90;;;;;;5074015;28;20048;-67
2022/08/27 05:41:18;;;;;;;7.50;2.22;;;15.10;99.90;;;;;;5082090;28;20052;-67
2022/08/27 05:43:44;;;;;;;6.03;2.72;;;15.20;99.90;;;;;;5073086;28;20045;-67
2022/08/27 05:46:16;;;;;;;8.57;3.22;;;15.30;99.90;;;;;;5058513;28;20048;-67
2022/08/27 05:48:43;;;;;;;6.05;2.70;;;15.40;99.90;;;;;;5078950;28;20040;-67
2022/08/27 05:51:13;;;;;;;8.93;2.55;;;15.50;99.90;;;;;;5079328;28;20056;-67
2022/08/27 05:53:40;;;;;;;7.75;2.75;;;15.60;99.90;;;;;;5059898;28;20087;-67
2022/08/27 05:56:15;;;;;;;9.13;2.00;;;15.70;99.90;;;;;;5041829;28;20065;-67
2022/08/27 06:01:26;;;;;;;7.10;2.20;;;15.80;99.90;;;;;;5053064;28;20051;-67
2022/08/27 06:03:53;;;;;;;8.60;2.50;;;15.90;99.90;;;;;;5062089;28;20049;-67
2022/08/27 06:06:21;;;;;;;6.20;2.60;;;16.00;99.90;;;;;;5054966;28;20073;-67
2022/08/27 06:08:46;;;;;;;6.13;2.47;;;16.10;99.90;;;;;;5059117;28;20552;-67
2022/08/27 06:11:12;;;;;;;4.72;2.42;;;16.20;99.90;;;;;;5057869;28;20079;-67
2022/08/27 06:13:38;;;;;;;8.70;2.00;;;16.30;99.90;;;;;;5058313;28;20083;-67
2022/08/27 06:16:09;;;;;;;6.60;2.15;;;16.50;99.90;;;;;;5057921;28;20462;-67
2022/08/27 06:18:37;;;;;;;5.95;1.90;;;16.60;99.90;;;;;;5061170;28;20044;-67
2022/08/27 06:21:04;;;;;;;8.20;2.10;;;16.70;99.90;;;;;;5054551;28;20049;-67
2022/08/27 06:23:30;;;;;;;4.00;1.58;;;16.80;99.90;;;;;;5058765;28;20048;-67
2022/08/27 06:25:56;;;;;;;11.15;2.10;;;16.80;99.90;;;;;;5054604;28;20041;-67
2022/08/27 06:28:28;;;;;;;6.18;2.03;;;16.90;99.90;;;;;;5057193;28;20068;-67
2022/08/27 06:31:05;;;;;;;7.25;2.05;;;17.00;99.90;;;;;;5054596;28;20040;-67
2022/08/27 06:33:31;;;;;;;4.25;1.75;;;17.00;99.90;;;;;;5055886;28;20044;-67
2022/08/27 06:36:02;;;;;;;5.35;1.88;;;16.90;99.90;;;;;;5057549;28;20044;-67
2022/08/27 06:38:28;;;;;;;7.55;2.47;;;16.90;99.90;;;;;;5062394;28;20056;-68
2022/08/27 06:40:55;;;;;;;6.07;2.20;;;16.90;99.90;;;;;;5047518;28;20049;-66
2022/08/27 06:43:22;;;;;;;5.05;1.90;;;16.90;99.90;;;;;;5053396;28;20058;-65
2022/08/27 06:45:48;;;;;;;10.55;2.65;;;16.90;99.90;;;;;;5060963;28;20110;-65
2022/08/27 06:48:14;;;;;;;7.85;2.65;;;17.00;99.90;;;;;;5050325;28;20052;-66
2022/08/27 06:50:42;;;;;;;7.80;2.10;;;17.10;99.90;;;;;;5044850;28;20045;-67
2022/08/27 06:53:07;;;;;;;5.47;2.35;;;17.20;99.90;;;;;;5047511;28;20064;-67
2022/08/27 06:55:44;;;;;;;7.10;2.47;;;17.30;99.90;;;;;;5047554;28;20049;-68
2022/08/27 06:58:10;;;;;;;5.80;2.08;;;17.40;99.90;;;;;;5050517;28;20088;-68
2022/08/27 07:00:36;;;;;;;6.60;2.70;;;17.50;99.90;;;;;;5045170;28;20060;-68
2022/08/27 07:03:04;;;;;;;7.97;2.38;;;17.50;99.90;;;;;;5051986;28;20048;-67
2022/08/27 07:05:31;;;;;;;9.50;2.20;;;17.60;99.90;;;;;;5054214;28;20053;-68
2022/08/27 07:07:57;;;;;;;9.55;2.15;;;17.60;99.90;;;;;;5073371;28;20123;-68
2022/08/27 07:10:23;;;;;;;4.82;1.85;;;17.70;99.90;;;;;;5055777;28;20040;-68
2022/08/27 07:12:49;;;;;;;9.25;2.28;;;17.80;99.90;;;;;;5059879;28;20468;-69
2022/08/27 07:15:15;;;;;;;11.02;2.10;;;17.90;99.90;;;;;;5056254;28;20045;-68
2022/08/27 07:17:43;;;;;;;6.65;2.33;;;18.00;99.90;;;;;;5048533;28;20049;-68
2022/08/27 07:20:10;;;;;;;6.10;1.73;;;18.00;99.90;;;;;;5040130;28;20061;-68
2022/08/27 07:22:39;;;;;;;94.30;9.65;;;18.10;99.90;;;;;;5037447;28;20058;-68
2022/08/27 07:25:08;;;;;;;10.13;1.80;;;18.20;99.90;;;;;;5031858;28;20049;-68
2022/08/27 07:27:34;;;;;;;7.03;2.30;;;18.30;99.90;;;;;;5045793;28;20194;-70
2022/08/27 07:30:00;;;;;;;3.88;1.80;;;18.40;99.90;;;;;;5075343;28;20075;-68
2022/08/27 07:32:26;;;;;;;9.88;2.42;;;18.40;99.90;;;;;;5048844;28;20053;-65
2022/08/27 07:34:51;;;;;;;7.45;2.42;;;18.40;99.90;;;;;;5049022;28;20051;-67
2022/08/27 07:37:17;;;;;;;5.90;2.35;;;18.40;99.90;;;;;;5007640;28;20077;-67
2022/08/27 07:39:43;;;;;;;6.18;1.75;;;18.50;99.90;;;;;;5036385;28;20045;-70
2022/08/27 07:44:53;;;;;;;6.22;1.88;;;18.60;99.90;;;;;;5072913;28;20055;-67
2022/08/27 07:47:18;;;;;;;8.93;1.95;;;18.70;99.90;;;;;;5036831;28;20056;-67
2022/08/27 07:49:44;;;;;;;8.07;2.20;;;18.80;99.90;;;;;;5043342;28;20080;-67
2022/08/27 07:52:11;;;;;;;8.90;1.90;;;18.90;99.90;;;;;;5050795;28;20044;-67
2022/08/27 07:54:36;;;;;;;10.88;2.35;;;19.00;99.90;;;;;;5060431;28;20088;-67
2022/08/27 07:57:02;;;;;;;5.50;1.80;;;19.00;99.90;;;;;;5060183;28;20047;-67
2022/08/27 07:59:28;;;;;;;8.23;1.65;;;19.10;99.90;;;;;;5049463;28;20045;-65
2022/08/27 08:01:55;;;;;;;5.28;1.67;;;19.20;99.90;;;;;;5044773;28;20059;-66
2022/08/27 08:04:21;;;;;;;11.27;3.17;;;19.30;99.90;;;;;;5043248;28;20412;-65
2022/08/27 08:06:48;;;;;;;7.25;2.05;;;19.40;99.90;;;;;;5062739;28;20040;-65
2022/08/27 08:09:14;;;;;;;6.63;1.83;;;19.50;99.90;;;;;;5028149;28;20049;-65
2022/08/27 08:11:40;;;;;;;6.35;1.95;;;19.60;99.90;;;;;;5049155;28;20052;-66
2022/08/27 08:14:05;;;;;;;9.18;2.30;;;19.60;99.90;;;;;;5061415;28;20045;-66
2022/08/27 08:16:31;;;;;;;10.35;2.05;;;19.60;99.90;;;;;;5048403;28;20742;-66
2022/08/27 08:18:59;;;;;;;7.15;2.13;;;19.80;99.90;;;;;;5038588;28;20381;-63
2022/08/27 08:21:25;;;;;;;7.85;2.25;;;19.80;99.90;;;;;;5052032;28;20434;-65
2022/08/27 08:23:51;;;;;;;9.15;2.30;;;19.90;99.90;;;;;;5038926;28;20049;-65
2022/08/27 08:26:16;;;;;;;9.50;2.53;;;19.80;99.90;;;;;;5055422;28;20055;-65
2022/08/27 08:28:42;;;;;;;10.45;2.10;;;19.80;99.90;;;;;;5044575;28;20102;-65
2022/08/27 08:31:08;;;;;;;12.02;2.15;;;19.90;99.90;;;;;;5047462;28;20118;-65
2022/08/27 08:33:35;;;;;;;9.13;2.17;;;20.10;99.90;;;;;;5042827;28;20116;-65
2022/08/27 08:36:12;;;;;;;7.00;1.80;;;20.10;99.90;;;;;;5041697;28;20045;-65
2022/08/27 08:38:39;;;;;;;13.00;2.08;;;20.20;99.90;;;;;;5036105;28;20052;-65
2022/08/27 08:41:18;;;;;;;11.07;2.50;;;20.40;99.90;;;;;;5056858;28;20556;-65
2022/08/27 08:43:50;;;;;;;8.57;2.43;;;20.40;99.90;;;;;;5037211;28;20053;-65
2022/08/27 08:46:39;;;;;;;11.55;1.92;;;20.40;99.90;;;;;;5056323;28;20870;-65
2022/08/27 08:49:25;;;;;;;12.95;2.00;;;20.50;99.90;;;;;;5029789;28;20092;-65
2022/08/27 08:51:54;;;;;;;8.77;2.10;;;20.50;99.90;;;;;;5069516;28;20045;-65
2022/08/27 08:54:23;;;;;;;9.00;1.88;;;20.50;99.90;;;;;;5035660;28;20055;-65
2022/08/27 08:57:04;;;;;;;6.65;1.52;;;20.50;99.90;;;;;;5072957;28;20048;-65
2022/08/27 08:59:37;;;;;;;8.63;2.00;;;20.40;99.90;;;;;;5047217;28;20056;-64
2022/08/27 09:02:09;;;;;;;8.43;2.17;;;20.40;99.90;;;;;;5055194;28;20399;-64
2022/08/27 09:04:35;;;;;;;7.35;1.80;;;20.30;99.90;;;;;;5032894;28;20053;-64
2022/08/27 09:07:37;;;;;;;5.65;1.40;;;20.30;99.90;;;;;;5053600;28;20212;-64
2022/08/27 09:10:13;;;;;;;6.80;1.80;;;20.20;99.90;;;;;;5038509;28;20119;-65
2022/08/27 09:12:38;;;;;;;7.60;2.03;;;20.40;99.90;;;;;;5058062;28;20056;-70
2022/08/27 09:15:15;;;;;;;9.77;2.13;;;20.50;99.90;;;;;;5059612;28;20049;-66
2022/08/27 09:17:42;;;;;;;10.07;2.25;;;20.70;99.90;;;;;;5054687;28;20140;-64
2022/08/27 09:20:09;;;;;;;10.15;2.35;;;20.70;99.90;;;;;;5064359;28;20052;-65
2022/08/27 09:22:47;;;;;;;7.72;2.10;;;20.80;99.90;;;;;;5061335;28;20069;-64
2022/08/27 09:25:25;;;;;;;10.73;1.77;;;20.80;99.90;;;;;;5055016;28;20049;-64
2022/08/27 09:27:54;;;;;;;6.88;1.80;;;21.00;99.90;;;;;;5066383;28;20040;-64
2022/08/27 09:30:24;;;;;;;6.97;1.50;;;21.00;99.90;;;;;;5060261;28;20079;-64
2022/08/27 09:32:58;;;;;;;6.32;1.60;;;21.00;99.90;;;;;;5044185;28;20110;-64
2022/08/27 09:35:25;;;;;;;7.30;2.20;;;21.10;99.90;;;;;;5045998;28;20048;-64
2022/08/27 09:37:54;;;;;;;8.38;2.03;;;21.00;99.90;;;;;;5037226;28;20771;-64
2022/08/27 09:40:36;;;;;;;7.13;1.67;;;21.10;99.90;;;;;;5038171;28;20075;-64
2022/08/27 09:43:17;;;;;;;7.57;1.70;;;20.80;99.90;;;;;;5059379;28;20056;-64
2022/08/27 09:45:59;;;;;;;9.23;1.80;;;20.90;99.90;;;;;;5053290;28;20040;-65
2022/08/27 09:48:28;;;;;;;11.98;2.05;;;21.00;99.90;;;;;;5054778;28;20050;-64
2022/08/27 09:51:14;;;;;;;6.28;1.52;;;21.10;99.90;;;;;;5044699;28;20514;-65
2022/08/27 09:53:54;;;;;;;10.95;1.73;;;21.30;99.90;;;;;;5046232;28;20075;-64
2022/08/27 09:56:30;;;;;;;15.00;2.20;;;21.50;99.90;;;;;;5058926;28;20064;-64
2022/08/27 09:59:09;;;;;;;6.80;1.55;;;21.50;99.90;;;;;;5045179;28;20146;-64
2022/08/27 10:01:56;;;;;;;7.35;1.77;;;21.50;99.90;;;;;;5054157;28;20049;-64
2022/08/27 10:04:52;;;;;;;8.07;1.85;;;21.30;99.90;;;;;;5041128;28;20057;-64
2022/08/27 10:07:37;;;;;;;7.88;1.92;;;21.30;99.90;;;;;;5059756;28;20122;-64
2022/08/27 10:10:24;;;;;;;6.35;1.67;;;21.40;99.90;;;;;;5044402;28;20056;-64
2022/08/27 10:12:57;;;;;;;7.55;1.65;;;21.50;99.90;;;;;;5036537;28;20056;-64
2022/08/27 10:15:27;;;;;;;9.32;1.70;;;21.50;99.90;;;;;;5039117;28;20179;-64
2022/08/27 10:18:10;;;;;;;8.52;2.22;;;21.50;99.90;;;;;;5035331;28;20048;-64
2022/08/27 10:20:42;;;;;;;13.55;2.03;;;21.40;99.90;;;;;;5047045;28;20067;-64
2022/08/27 10:23:24;;;;;;;7.07;2.25;;;21.30;99.90;;;;;;5042482;28;20052;-64
2022/08/27 10:26:07;;;;;;;9.85;1.95;;;21.30;99.90;;;;;;5061915;28;20032;-65
2022/08/27 10:28:53;;;;;;;6.18;1.45;;;21.50;99.90;;;;;;5042041;28;20122;-65
2022/08/27 10:31:30;;;;;;;8.30;1.80;;;21.50;99.90;;;;;;5064088;28;20045;-68
2022/08/27 10:34:13;;;;;;;8.75;2.70;;;21.80;99.90;;;;;;5035205;28;20391;-63
2022/08/27 10:36:43;;;;;;;8.98;1.80;;;22.00;99.90;;;;;;5041985;28;20518;-68
2022/08/27 10:39:08;;;;;;;;;;;22.00;99.90;;;;;;5032768;28;20059;-68
2022/08/27 10:41:43;;;;;;;12.38;2.60;;;21.90;99.90;;;;;;5030278;28;19921;-68
2022/08/27 10:44:38;;;;;;;10.23;2.00;;;22.00;99.90;;;;;;5034179;28;20045;-68
2022/08/27 10:47:27;;;;;;;6.55;1.58;;;22.00;99.90;;;;;;5061002;28;20041;-68
2022/08/27 10:50:05;;;;;;;8.48;2.00;;;22.10;99.90;;;;;;5030438;28;20048;-70
2022/08/27 10:52:30;;;;;;;9.63;2.13;;;22.20;99.90;;;;;;5043004;28;20463;-70
2022/08/27 10:55:12;;;;;;;7.03;1.98;;;22.30;99.90;;;;;;5015568;28;20049;-69
2022/08/27 10:57:56;;;;;;;7.43;2.33;;;22.30;99.90;;;;;;5043526;28;20070;-69
2022/08/27 11:00:23;;;;;;;9.18;2.17;;;22.50;99.90;;;;;;5019834;28;20077;-70
2022/08/27 11:02:54;;;;;;;6.85;1.77;;;22.80;99.90;;;;;;5031290;28;20067;-69
2022/08/27 11:05:27;;;;;;;9.82;2.13;;;22.80;99.90;;;;;;5056804;28;20043;-68
2022/08/27 11:08:06;;;;;;;7.05;1.40;;;22.80;99.90;;;;;;5041392;28;20056;-67
2022/08/27 11:10:38;;;;;;;32.42;3.03;;;23.00;99.90;;;;;;5035125;28;20075;-64
2022/08/27 11:13:25;;;;;;;10.88;1.95;;;23.00;99.90;;;;;;5042550;28;20561;-64
2022/08/27 11:15:55;;;;;;;5.22;1.38;;;22.90;99.90;;;;;;5044438;28;20519;-64
2022/08/27 11:18:59;;;;;;;6.88;1.92;;;23.00;99.90;;;;;;5040322;28;20060;-65
2022/08/27 11:21:55;;;;;;;8.63;2.05;;;22.80;99.90;;;;;;5061421;28;20488;-65
2022/08/27 11:24:31;;;;;;;48.08;3.95;;;22.90;99.90;;;;;;5033797;28;20060;-65
2022/08/27 11:27:03;;;;;;;10.15;1.50;;;22.80;99.90;;;;;;5063544;28;20037;-65
2022/08/27 11:29:46;;;;;;;7.78;1.60;;;22.90;99.90;;;;;;5033720;28;20068;-65
2022/08/27 11:32:25;;;;;;;7.40;1.88;;;23.00;99.90;;;;;;5043031;28;20595;-65
2022/08/27 11:34:59;;;;;;;4.50;1.70;;;23.10;99.90;;;;;;5034964;28;20060;-65
2022/08/27 11:37:40;;;;;;;41.65;3.60;;;23.30;99.90;;;;;;5043844;28;20084;-65
2022/08/27 11:40:34;;;;;;;5.95;1.30;;;23.60;99.90;;;;;;5021059;28;20057;-65
2022/08/27 11:43:13;;;;;;;24.10;2.72;;;23.60;99.90;;;;;;5049063;28;20083;-65
2022/08/27 11:45:58;;;;;;;11.73;2.17;;;23.70;99.90;;;;;;5034347;28;20053;-65
2022/08/27 11:48:54;;;;;;;8.68;2.08;;;23.30;99.90;;;;;;5037665;28;20060;-66
2022/08/27 11:51:27;;;;;;;8.05;1.63;;;23.20;99.90;;;;;;5049648;28;20076;-66
2022/08/27 11:54:05;;;;;;;12.05;2.20;;;23.20;99.90;;;;;;5041341;28;20049;-66
2022/08/27 11:56:41;;;;;;;6.38;1.88;;;23.10;99.90;;;;;;5060204;28;20349;-66
2022/08/27 11:59:19;;;;;;;6.85;1.50;;;22.80;99.90;;;;;;5054073;28;20057;-66
2022/08/27 12:01:45;;;;;;;5.88;2.03;;;22.70;99.90;;;;;;5047749;28;20106;-66
2022/08/27 12:04:19;;;;;;;9.35;1.65;;;22.60;99.90;;;;;;5033681;28;20045;-66
2022/08/27 12:06:51;;;;;;;12.80;2.00;;;22.80;99.90;;;;;;5057049;28;20045;-66
2022/08/27 12:09:22;;;;;;;8.07;2.05;;;22.80;99.90;;;;;;5042327;28;20053;-66
2022/08/27 12:12:14;;;;;;;7.53;1.77;;;22.90;99.90;;;;;;5076804;28;20107;-66
2022/08/27 12:14:48;;;;;;;8.07;1.45;;;22.80;99.90;;;;;;5032399;28;20053;-66
2022/08/27 12:17:48;;;;;;;6.68;1.15;;;23.00;99.90;;;;;;5063707;28;20105;-66
2022/08/27 12:20:31;;;;;;;6.22;1.55;;;23.10;99.90;;;;;;5052077;28;20057;-68
2022/08/27 12:23:41;;;;;;;5.22;1.58;;;23.30;99.90;;;;;;5057889;28;20044;-68
2022/08/27 12:26:30;;;;;;;6.30;1.65;;;23.40;99.90;;;;;;5039686;28;20057;-68
2022/08/27 12:29:33;;;;;;;5.10;1.40;;;23.30;99.90;;;;;;5063213;28;20082;-67
2022/08/27 12:32:20;;;;;;;8.23;1.98;;;23.20;99.80;;;;;;5021206;28;20532;-69
2022/08/27 12:35:24;;;;;;;17.30;2.83;;;23.40;99.90;;;;;;5045941;28;20492;-70
2022/08/27 12:38:05;;;;;;;7.13;1.40;;;23.60;99.90;;;;;;5060522;28;20057;-70
2022/08/27 12:40:52;;;;;;;5.70;1.63;;;23.80;99.00;;;;;;4997092;28;20045;-70
2022/08/27 12:43:24;;;;;;;5.75;1.60;;;23.90;98.90;;;;;;5028231;28;20056;-69
2022/08/27 12:46:15;;;;;;;6.85;1.48;;;23.50;99.30;;;;;;5078247;28;20037;-69
2022/08/27 12:48:54;;;;;;;6.78;1.80;;;23.50;99.90;;;;;;5064851;28;20355;-70
2022/08/27 12:51:31;;;;;;;8.48;1.25;;;23.90;99.90;;;;;;5048398;28;20052;-70
2022/08/27 12:54:11;;;;;;;9.02;1.85;;;24.00;98.50;;;;;;5022848;28;20054;-69
2022/08/27 12:56:43;;;;;;;7.57;1.30;;;23.80;99.00;;;;;;5038724;28;20046;-69
2022/08/27 12:59:47;;;;;;;5.82;1.42;;;23.80;98.60;;;;;;5035035;28;20041;-68
2022/08/27 13:02:32;;;;;;;5.22;1.52;;;24.00;98.70;;;;;;5044208;28;20052;-69
2022/08/27 13:05:03;;;;;;;10.73;1.63;;;24.20;98.90;;;;;;5022469;28;20552;-65
2022/08/27 13:07:32;;;;;;;13.18;1.98;;;24.40;98.60;;;;;;5085968;28;20075;-67
2022/08/27 13:10:13;;;;;;;11.93;2.10;;;24.50;98.50;;;;;;5059630;28;20045;-66
2022/08/27 13:12:39;;;;;;;7.10;1.50;;;24.40;98.00;;;;;;5066803;28;20135;-66